createdAt,value
2019-05-15T00:00:13.643Z,4.40
2019-05-15T00:02:42.035Z,5.28
2019-05-15T00:05:10.406Z,4.20
2019-05-15T00:07:39.371Z,4.87
2019-05-15T00:10:08.729Z,4.23
2019-05-15T00:12:35.515Z,4.00
2019-05-15T00:15:09.359Z,3.87
2019-05-15T00:17:35.830Z,3.97
2019-05-15T00:22:40.397Z,4.05
2019-05-15T00:25:09.654Z,4.40
2019-05-15T00:27:38.773Z,4.73
2019-05-15T00:30:08.681Z,3.90
2019-05-15T00:32:38.993Z,4.07
2019-05-15T00:35:06.456Z,4.33
2019-05-15T00:37:34.791Z,3.43
2019-05-15T00:40:05.057Z,4.00
2019-05-15T00:42:33.399Z,5.10
2019-05-15T00:45:09.116Z,5.10
2019-05-15T00:47:35.905Z,5.47
2019-05-15T00:50:11.195Z,5.43
2019-05-15T00:52:39.619Z,4.10
2019-05-15T00:55:12.259Z,5.30
2019-05-15T00:57:40.631Z,5.53
2019-05-15T01:02:48.730Z,5.60
2019-05-15T01:07:49.744Z,5.93
2019-05-15T01:10:22.159Z,5.60
2019-05-15T01:12:51.448Z,6.62
2019-05-15T01:15:24.965Z,5.23
2019-05-15T01:17:53.305Z,5.33
2019-05-15T01:20:21.645Z,5.77
2019-05-15T01:22:49.983Z,4.53
2019-05-15T01:25:25.411Z,4.57
2019-05-15T01:27:59.530Z,5.70
2019-05-15T01:30:28.670Z,5.27
2019-05-15T01:32:56.224Z,4.77
2019-05-15T01:35:24.577Z,5.10
2019-05-15T01:37:58.876Z,5.17
2019-05-15T01:40:28.919Z,5.47
2019-05-15T01:42:58.303Z,5.13
2019-05-15T01:45:25.834Z,6.03
2019-05-15T01:47:58.580Z,6.37
2019-05-15T01:50:26.130Z,5.80
2019-05-15T01:52:55.400Z,7.47
2019-05-15T01:55:23.777Z,7.62
2019-05-15T01:57:58.058Z,7.50
2019-05-15T02:00:28.209Z,6.93
2019-05-15T02:02:59.414Z,6.40
2019-05-15T02:05:28.284Z,6.10
2019-05-15T02:07:58.545Z,6.40
2019-05-15T02:10:30.005Z,5.40
2019-05-15T02:15:32.561Z,6.10
2019-05-15T02:18:08.380Z,5.23
2019-05-15T02:20:35.465Z,6.00
2019-05-15T02:23:11.738Z,5.80
2019-05-15T02:25:38.602Z,5.10
2019-05-15T02:28:04.798Z,4.20
2019-05-15T02:30:34.228Z,4.77
2019-05-15T02:35:39.410Z,6.60
2019-05-15T02:38:10.333Z,5.43
2019-05-15T02:40:35.429Z,5.33
2019-05-15T02:45:42.768Z,5.93
2019-05-15T02:48:10.886Z,5.30
2019-05-15T02:50:39.540Z,5.43
2019-05-15T02:53:09.973Z,4.53
2019-05-15T02:55:35.946Z,4.90
2019-05-15T02:58:04.296Z,5.30
2019-05-15T03:00:46.017Z,5.53
2019-05-15T03:03:02.009Z,4.67
2019-05-15T03:05:30.286Z,5.23
2019-05-15T03:10:35.850Z,5.40
2019-05-15T03:13:04.290Z,4.63
2019-05-15T03:15:32.636Z,5.17
2019-05-15T03:20:40.652Z,5.10
2019-05-15T03:23:10.248Z,5.00
2019-05-15T03:25:40.497Z,5.17
2019-05-15T03:28:10.082Z,4.80
2019-05-15T03:31:06.891Z,5.00
2019-05-15T03:35:42.873Z,5.35
2019-05-15T03:38:09.364Z,4.00
2019-05-15T03:40:39.708Z,4.57
2019-05-15T03:43:05.512Z,4.67
2019-05-15T03:45:35.787Z,4.00
2019-05-15T03:48:09.379Z,5.03
2019-05-15T03:50:35.392Z,4.30
2019-05-15T03:53:03.729Z,4.40
2019-05-15T03:55:32.067Z,5.40
2019-05-15T03:58:04.137Z,4.63
2019-05-15T04:00:32.541Z,4.17
2019-05-15T04:03:04.804Z,4.43
2019-05-15T04:05:33.151Z,4.70
2019-05-15T04:08:11.300Z,4.50
2019-05-15T04:10:39.842Z,4.97
2019-05-15T04:13:09.405Z,5.20
2019-05-15T04:15:35.291Z,5.00
2019-05-15T04:18:03.667Z,5.23
2019-05-15T04:20:32.085Z,4.80
2019-05-15T04:25:40.595Z,4.50
2019-05-15T04:28:09.937Z,4.20
2019-05-15T04:30:39.207Z,4.90
2019-05-15T04:33:09.595Z,4.13
2019-05-15T04:35:35.090Z,4.57
2019-05-15T04:38:03.432Z,4.68
2019-05-15T04:40:31.839Z,4.10
2019-05-15T04:43:02.096Z,4.10
2019-05-15T04:45:34.622Z,3.50
2019-05-15T04:48:03.447Z,3.60
2019-05-15T04:50:31.807Z,3.90
2019-05-15T04:53:00.137Z,4.37
2019-05-15T04:58:03.637Z,4.20
2019-05-15T05:00:49.515Z,4.07
2019-05-15T05:03:14.913Z,4.13
2019-05-15T05:05:43.455Z,3.97
2019-05-15T05:08:11.852Z,3.50
2019-05-15T05:10:40.191Z,3.77
2019-05-15T05:13:08.910Z,4.00
2019-05-15T05:15:38.927Z,4.17
2019-05-15T05:18:05.435Z,3.70
2019-05-15T05:20:33.740Z,3.40
2019-05-15T05:23:08.411Z,4.30
2019-05-15T05:25:34.561Z,3.87
2019-05-15T05:28:12.874Z,3.70
2019-05-15T05:30:41.269Z,4.10
2019-05-15T05:33:09.608Z,4.93
2019-05-15T05:35:38.730Z,4.03
2019-05-15T05:38:07.836Z,4.20
2019-05-15T05:40:34.708Z,4.63
2019-05-15T05:43:04.050Z,3.47
2019-05-15T05:45:32.368Z,3.17
2019-05-15T05:48:08.700Z,3.80
2019-05-15T05:50:34.935Z,3.20
2019-05-15T05:55:40.493Z,3.90
2019-05-15T05:58:10.809Z,4.30
2019-05-15T06:00:40.099Z,4.00
2019-05-15T06:03:10.435Z,3.83
2019-05-15T06:05:42.295Z,3.77
2019-05-15T06:08:22.496Z,3.47
2019-05-15T06:11:10.064Z,3.13
2019-05-15T06:13:38.418Z,3.53
2019-05-15T06:16:08.633Z,3.67
2019-05-15T06:18:38.876Z,3.73
2019-05-15T06:21:29.981Z,3.07
2019-05-15T06:24:08.273Z,3.53
2019-05-15T06:26:34.806Z,3.17
2019-05-15T06:29:17.953Z,2.97
2019-05-15T06:32:15.049Z,3.50
2019-05-15T06:34:43.387Z,3.43
2019-05-15T06:37:11.733Z,3.67
2019-05-15T06:39:59.783Z,3.63
2019-05-15T06:42:28.411Z,3.40
2019-05-15T06:45:03.606Z,3.60
2019-05-15T06:47:39.445Z,3.97
2019-05-15T06:50:09.608Z,3.30
2019-05-15T06:52:41.391Z,3.77
2019-05-15T06:57:48.506Z,3.70
2019-05-15T07:00:15.278Z,3.60
2019-05-15T07:02:53.385Z,4.30
2019-05-15T07:05:22.649Z,3.50
2019-05-15T07:08:03.900Z,3.50
2019-05-15T07:10:34.387Z,3.67
2019-05-15T07:13:08.845Z,3.73
2019-05-15T07:15:53.712Z,3.47
2019-05-15T07:18:22.046Z,3.43
2019-05-15T07:20:50.408Z,3.40
2019-05-15T07:23:19.146Z,4.40
2019-05-15T07:25:49.730Z,4.00
2019-05-15T07:28:17.926Z,3.13
2019-05-15T07:30:49.498Z,4.10
2019-05-15T07:33:35.268Z,3.83
2019-05-15T07:38:28.194Z,3.70
2019-05-15T07:41:03.771Z,4.57
2019-05-15T07:43:33.253Z,3.97
2019-05-15T07:46:08.446Z,3.83
2019-05-15T07:48:58.459Z,3.90
2019-05-15T07:51:48.603Z,4.10
2019-05-15T07:54:15.290Z,4.23
2019-05-15T07:56:55.022Z,4.50
2019-05-15T07:59:27.975Z,3.70
2019-05-15T08:04:57.685Z,4.47
2019-05-15T08:07:38.983Z,3.93
2019-05-15T08:10:08.701Z,3.77
2019-05-15T08:15:11.492Z,3.60
2019-05-15T08:20:33.748Z,4.68
2019-05-15T08:23:03.047Z,4.00
2019-05-15T08:25:38.969Z,4.63
2019-05-15T08:28:08.864Z,3.70
2019-05-15T08:30:38.156Z,4.00
2019-05-15T08:33:04.598Z,4.20
2019-05-15T08:35:35.718Z,4.20
2019-05-15T08:38:05.278Z,3.70
2019-05-15T08:43:11.587Z,4.10
2019-05-15T08:45:42.369Z,4.10
2019-05-15T08:48:11.593Z,4.10
2019-05-15T08:51:05.772Z,3.43
2019-05-15T08:56:10.583Z,4.60
2019-05-15T08:58:38.922Z,4.32
2019-05-15T09:01:09.766Z,4.17
2019-05-15T09:06:12.284Z,3.70
2019-05-15T09:08:45.629Z,3.80
2019-05-15T09:11:14.148Z,3.60
2019-05-15T09:13:53.731Z,3.87
2019-05-15T09:16:18.462Z,3.93
2019-05-15T09:18:48.528Z,3.87
2019-05-15T09:21:16.148Z,4.20
2019-05-15T09:26:31.484Z,3.70
2019-05-15T09:29:00.747Z,4.67
2019-05-15T09:31:58.667Z,3.47
2019-05-15T09:37:02.744Z,3.70
2019-05-15T09:39:39.385Z,3.13
2019-05-15T09:42:09.410Z,3.43
2019-05-15T09:44:45.087Z,3.27
2019-05-15T09:47:13.479Z,3.50
2019-05-15T09:49:43.832Z,3.70
2019-05-15T09:52:12.312Z,3.10
2019-05-15T09:57:18.809Z,2.90
2019-05-15T09:59:48.682Z,3.30
2019-05-15T10:02:19.598Z,3.00
2019-05-15T10:05:06.673Z,2.40
2019-05-15T10:10:08.679Z,3.05
2019-05-15T10:12:38.621Z,2.90
2019-05-15T10:15:10.878Z,3.30
2019-05-15T10:17:39.884Z,2.80
2019-05-15T10:20:11.707Z,3.83
2019-05-15T10:22:58.880Z,3.10
2019-05-15T10:28:04.718Z,2.80
2019-05-15T10:31:00.164Z,3.47
2019-05-15T10:33:58.298Z,3.47
2019-05-15T10:36:30.103Z,3.33
2019-05-15T10:44:12.934Z,3.33
2019-05-15T10:46:48.344Z,3.00
2019-05-15T10:49:15.225Z,3.87
2019-05-15T10:52:00.690Z,3.47
2019-05-15T10:57:06.168Z,2.80
2019-05-15T11:00:01.653Z,3.30
2019-05-15T11:02:39.488Z,3.23
2019-05-15T11:05:09.456Z,2.90
2019-05-15T11:07:42.175Z,2.90
2019-05-15T11:10:10.559Z,2.80
2019-05-15T11:12:58.207Z,2.90
2019-05-15T11:18:02.839Z,3.43
2019-05-15T11:20:41.345Z,3.20
2019-05-15T11:23:08.198Z,3.10
2019-05-15T11:28:12.716Z,3.20
2019-05-15T11:33:18.913Z,3.27
2019-05-15T11:36:05.451Z,3.33
2019-05-15T11:38:53.757Z,3.10
2019-05-15T11:41:42.161Z,3.00
2019-05-15T11:44:11.402Z,3.60
2019-05-15T11:46:43.373Z,3.42
2019-05-15T11:49:13.678Z,3.20
2019-05-15T11:51:49.167Z,3.20
2019-05-15T11:54:18.918Z,3.27
2019-05-15T11:59:48.525Z,3.10
2019-05-15T12:02:18.649Z,3.63
2019-05-15T12:07:25.374Z,2.53
2019-05-15T12:09:58.982Z,3.30
2019-05-15T12:12:38.810Z,3.63
2019-05-15T12:15:06.862Z,3.20
2019-05-15T12:17:39.158Z,3.30
2019-05-15T12:20:07.276Z,3.10
2019-05-15T12:22:39.429Z,3.30
2019-05-15T12:25:09.681Z,3.07
2019-05-15T12:27:39.569Z,3.57
2019-05-15T12:30:09.981Z,3.50
2019-05-15T12:32:50.001Z,3.20
2019-05-15T12:35:20.519Z,3.50
2019-05-15T12:37:58.784Z,3.50
2019-05-15T13:00:51.036Z,3.87
2019-05-15T13:03:28.683Z,3.10
2019-05-15T13:05:59.639Z,3.57
2019-05-15T13:08:29.144Z,3.40
2019-05-15T13:10:58.027Z,3.20
2019-05-15T13:13:28.379Z,2.90
2019-05-15T13:16:08.630Z,3.20
2019-05-15T13:18:38.786Z,3.30
2019-05-15T13:21:20.876Z,3.67
2019-05-15T13:26:29.898Z,3.15
2019-05-15T13:28:58.582Z,3.00
2019-05-15T13:31:28.459Z,3.07
2019-05-15T13:34:21.436Z,3.53
2019-05-15T13:37:04.477Z,3.00
2019-05-15T13:39:32.837Z,2.90
2019-05-15T13:42:18.554Z,3.43
2019-05-15T13:44:47.813Z,3.23
2019-05-15T13:47:18.171Z,3.03
2019-05-15T13:52:24.791Z,3.40
2019-05-15T13:54:58.464Z,3.60
2019-05-15T13:57:48.695Z,3.80
2019-05-15T14:00:17.511Z,3.20
2019-05-15T14:02:49.761Z,3.23
2019-05-15T14:05:20.017Z,4.00
2019-05-15T14:07:49.744Z,2.80
2019-05-15T14:10:18.099Z,3.70
2019-05-15T14:15:21.481Z,3.60
2019-05-15T14:20:49.088Z,3.20
2019-05-15T14:23:18.476Z,3.20
2019-05-15T14:25:44.970Z,3.30
2019-05-15T14:28:13.344Z,3.40
2019-05-15T14:30:58.906Z,3.57
2019-05-15T14:33:29.273Z,3.53
2019-05-15T14:35:59.068Z,3.67
2019-05-15T14:38:30.630Z,3.47
2019-05-15T14:43:44.148Z,3.27
2019-05-15T14:46:12.761Z,3.93
2019-05-15T14:48:42.277Z,3.67
2019-05-15T14:51:10.660Z,4.53
2019-05-15T14:56:21.232Z,3.40
2019-05-15T14:58:51.505Z,3.40
2019-05-15T15:01:20.928Z,3.33
2019-05-15T15:04:00.465Z,3.83
2019-05-15T15:06:41.958Z,3.50
2019-05-15T15:09:10.429Z,4.27
2019-05-15T15:14:15.047Z,3.70
2019-05-15T15:16:43.461Z,3.73
2019-05-15T15:21:48.665Z,3.47
2019-05-15T15:24:18.923Z,4.47
2019-05-15T15:26:53.371Z,3.90
2019-05-15T15:31:58.960Z,3.60
2019-05-15T15:34:29.723Z,3.90
2019-05-15T15:37:10.169Z,3.60
2019-05-15T15:39:38.751Z,3.80
2019-05-15T15:42:12.836Z,4.10
2019-05-15T15:44:41.457Z,3.97
2019-05-15T15:47:13.753Z,3.33
2019-05-15T15:49:42.127Z,4.57
2019-05-15T15:52:18.101Z,4.50
2019-05-15T15:54:44.715Z,3.87
2019-05-15T15:59:49.127Z,4.37
2019-05-15T16:02:35.501Z,4.55
2019-05-15T16:05:08.110Z,4.10
2019-05-15T16:07:37.982Z,4.13
2019-05-15T16:12:40.902Z,3.87
2019-05-15T16:15:13.168Z,4.22
2019-05-15T16:19:20.623Z,4.20
2019-05-15T16:21:50.998Z,4.40
2019-05-15T16:24:21.840Z,4.20
2019-05-15T16:26:50.033Z,4.37
2019-05-15T16:32:00.715Z,4.50
2019-05-15T16:34:32.229Z,4.30
2019-05-15T16:37:08.894Z,4.40
2019-05-15T16:39:38.236Z,5.33
2019-05-15T16:42:06.824Z,4.77
2019-05-15T16:47:18.454Z,4.47
2019-05-15T16:49:45.672Z,4.57
2019-05-15T16:52:14.040Z,4.40
2019-05-15T16:54:42.435Z,4.80
2019-05-15T16:57:18.432Z,4.27
2019-05-15T16:59:48.047Z,4.27
2019-05-15T17:02:20.334Z,5.00
2019-05-15T17:04:48.929Z,5.10
2019-05-15T17:07:18.235Z,4.87
2019-05-15T17:09:45.479Z,5.17
2019-05-15T17:12:13.868Z,4.47
2019-05-15T17:14:42.200Z,4.13
2019-05-15T17:17:10.630Z,4.83
2019-05-15T17:19:39.037Z,5.10
2019-05-15T17:22:09.484Z,5.37
2019-05-15T17:24:38.715Z,4.73
2019-05-15T17:27:22.475Z,4.73
2019-05-15T17:32:32.182Z,5.10
2019-05-15T17:37:40.664Z,4.82
2019-05-15T17:40:09.995Z,5.50
2019-05-15T17:42:39.223Z,4.60
2019-05-15T17:45:28.285Z,5.53
2019-05-15T17:47:59.760Z,6.10
2019-05-15T17:53:11.509Z,6.20
2019-05-15T17:55:39.938Z,5.70
2019-05-15T17:58:31.897Z,4.67
2019-05-15T18:01:19.330Z,6.07
2019-05-15T18:03:48.591Z,6.13
2019-05-15T18:06:29.079Z,4.73
2019-05-15T18:11:33.407Z,5.72
2019-05-15T18:16:47.774Z,5.75
2019-05-15T18:19:31.737Z,6.30
2019-05-15T18:22:10.977Z,5.07
2019-05-15T18:24:39.336Z,5.73
2019-05-15T18:29:53.867Z,5.72
2019-05-15T18:34:59.483Z,5.50
2019-05-15T18:37:33.930Z,6.62
2019-05-15T18:40:10.272Z,5.33
2019-05-15T18:45:26.239Z,5.70
2019-05-15T18:47:54.580Z,7.23
2019-05-15T18:50:41.225Z,6.37
2019-05-15T18:53:10.474Z,6.60
2019-05-15T18:55:42.292Z,5.70
2019-05-15T18:58:34.550Z,5.83
2019-05-15T19:01:09.085Z,6.37
2019-05-15T19:03:41.214Z,6.37
2019-05-15T19:06:11.533Z,6.70
2019-05-15T19:11:28.910Z,6.07
2019-05-15T19:13:55.739Z,6.63
2019-05-15T19:16:24.073Z,5.87
2019-05-15T19:18:53.426Z,5.57
2019-05-15T19:24:10.717Z,6.22
2019-05-15T19:26:44.846Z,5.73
2019-05-15T19:31:49.445Z,5.70
2019-05-15T19:34:38.775Z,6.10
2019-05-15T19:37:08.750Z,6.67
2019-05-15T19:39:39.107Z,6.13
2019-05-15T19:42:08.895Z,7.10
2019-05-15T19:47:10.071Z,7.68
2019-05-15T19:49:38.435Z,6.87
2019-05-15T19:52:08.697Z,6.00
2019-05-15T19:57:11.273Z,6.50
2019-05-15T19:59:48.821Z,6.37
2019-05-15T20:02:15.450Z,7.30
2019-05-15T20:04:43.848Z,5.83
2019-05-15T20:07:12.304Z,6.30
2019-05-15T20:09:47.720Z,6.28
2019-05-15T20:12:14.434Z,7.00
2019-05-15T20:17:23.042Z,7.40
2019-05-15T20:19:52.302Z,6.60
2019-05-15T20:22:23.685Z,6.53
2019-05-15T20:24:58.347Z,6.40
2019-05-15T20:27:28.081Z,6.50
2019-05-15T20:29:56.208Z,5.90
2019-05-15T20:32:24.601Z,6.67
2019-05-15T20:34:53.956Z,6.13
2019-05-15T20:37:22.351Z,6.53
2019-05-15T20:39:51.690Z,6.30
2019-05-15T20:42:20.034Z,6.03
2019-05-15T20:44:48.695Z,5.70
2019-05-15T20:47:18.741Z,5.80
2019-05-15T20:49:48.584Z,5.43
2019-05-15T20:52:20.877Z,5.90
2019-05-15T20:54:45.210Z,5.33
2019-05-15T20:57:13.693Z,5.60
2019-05-15T20:59:43.056Z,5.27
2019-05-15T21:02:12.328Z,5.67
2019-05-15T21:04:48.778Z,5.87
2019-05-15T21:07:27.618Z,5.43
2019-05-15T21:09:48.375Z,5.67
2019-05-15T21:12:14.870Z,6.28
2019-05-15T21:14:44.161Z,6.07
2019-05-15T21:17:12.871Z,6.30
2019-05-15T21:19:44.650Z,4.80
2019-05-15T21:22:13.032Z,5.60
2019-05-15T21:24:41.426Z,5.10
2019-05-15T21:29:43.978Z,5.45
2019-05-15T21:32:14.379Z,5.40
2019-05-15T21:34:44.415Z,4.93
2019-05-15T21:37:12.062Z,6.00
2019-05-15T21:39:41.275Z,5.40
2019-05-15T21:42:10.656Z,4.40
2019-05-15T21:44:39.031Z,5.40
2019-05-15T21:49:43.631Z,6.00
2019-05-15T21:52:11.987Z,6.27
2019-05-15T21:54:40.398Z,5.50
2019-05-15T21:57:29.112Z,6.32
2019-05-15T21:59:38.388Z,5.93
2019-05-15T22:02:05.504Z,6.40
2019-05-15T22:04:51.288Z,6.07
2019-05-15T22:07:08.862Z,6.77
2019-05-15T22:09:38.275Z,6.10
2019-05-15T22:12:06.628Z,6.27
2019-05-15T22:14:34.965Z,5.90
2019-05-15T22:19:39.552Z,6.80
2019-05-15T22:22:08.925Z,6.53
2019-05-15T22:24:37.885Z,7.07
2019-05-15T22:29:39.919Z,6.70
2019-05-15T22:32:08.311Z,7.00
2019-05-15T22:34:36.686Z,7.20
2019-05-15T22:37:05.027Z,7.00
2019-05-15T22:39:35.356Z,7.60
2019-05-15T22:42:03.725Z,6.40
2019-05-15T22:44:32.163Z,6.20
2019-05-15T22:47:01.447Z,5.97
2019-05-15T22:49:29.826Z,6.60
2019-05-15T22:51:58.249Z,6.10
2019-05-15T22:54:28.075Z,5.83
2019-05-15T22:56:55.003Z,6.37
2019-05-15T23:02:00.582Z,6.75
2019-05-15T23:04:29.995Z,7.05
2019-05-15T23:06:58.345Z,6.93
2019-05-15T23:12:10.829Z,7.18
2019-05-15T23:14:37.957Z,6.20
2019-05-15T23:17:08.001Z,6.40
2019-05-15T23:22:08.448Z,7.12
2019-05-15T23:24:38.574Z,6.33
2019-05-15T23:27:04.898Z,6.87
2019-05-15T23:29:34.145Z,6.60
2019-05-15T23:32:02.537Z,6.93
2019-05-15T23:34:30.905Z,6.97
2019-05-15T23:37:00.294Z,7.30
2019-05-15T23:39:28.640Z,7.10
2019-05-15T23:42:04.943Z,7.20
2019-05-15T23:44:33.293Z,6.27
2019-05-15T23:47:01.655Z,7.97
2019-05-15T23:49:30.013Z,7.55
2019-05-15T23:51:58.374Z,8.20
2019-05-15T23:54:28.814Z,8.93
2019-05-15T23:56:58.426Z,8.30
2019-05-15T23:59:25.528Z,8.47
